Time;durP1;ratioP1;P1;durP2;ratioP2;P2;SDS_P1;SDS_P2;PMS_P1;PMS_P2;Temp;Humidity;BMP_temperature;BMP_pressure;BME280_temperature;BME280_humidity;BME280_pressure;Samples;Min_cycle;Max_cycle;Signal;HPM_P1;HPM_P2
2021/08/14 00:01:56;;;;;;;16.60;5.33;;;;;;;13.91;92.45;101679.72;5089699;28;20131;-68
2021/08/14 00:04:21;;;;;;;13.60;4.97;;;;;;;13.85;92.26;101677.66;5089336;28;20028;-68
2021/08/14 00:06:47;;;;;;;21.17;5.93;;;;;;;13.83;92.39;101678.81;5071658;28;20089;-69
2021/08/14 00:09:12;;;;;;;25.30;5.80;;;;;;;13.78;92.58;101676.63;5089547;28;20081;-68
2021/08/14 00:11:38;;;;;;;25.30;5.07;;;;;;;13.78;92.85;101686.53;5071557;28;20369;-69
2021/08/14 00:14:03;;;;;;;20.43;4.53;;;;;;;13.88;92.34;101677.34;5089115;28;20055;-68
2021/08/14 00:16:28;;;;;;;15.57;5.80;;;;;;;13.84;92.25;101684.03;5089226;28;20397;-69
2021/08/14 00:18:54;;;;;;;26.07;4.40;;;;;;;13.83;91.89;101681.50;5089303;28;20046;-69
2021/08/14 00:21:19;;;;;;;20.47;5.60;;;;;;;13.65;92.28;101682.44;5071336;28;20062;-68
2021/08/14 00:23:44;;;;;;;19.07;5.43;;;;;;;13.65;93.08;101686.94;5071223;28;20082;-68
2021/08/14 00:26:10;;;;;;;19.00;4.93;;;;;;;13.65;92.96;101678.91;5070902;28;20043;-69
2021/08/14 00:28:36;;;;;;;18.17;4.80;;;;;;;13.66;92.48;101680.59;5089173;28;20117;-68
2021/08/14 00:31:02;;;;;;;14.90;4.47;;;;;;;13.66;92.24;101683.28;5089052;28;20036;-68
2021/08/14 00:33:28;;;;;;;15.90;4.65;;;;;;;13.65;91.96;101682.44;5071399;28;20097;-68
2021/08/14 00:35:53;;;;;;;24.23;5.50;;;;;;;13.66;92.26;101677.91;5071038;28;20132;-68
2021/08/14 00:38:19;;;;;;;19.50;4.67;;;;;;;13.69;92.32;101681.09;5071292;28;20043;-68
2021/08/14 00:40:44;;;;;;;20.60;5.43;;;;;;;13.67;92.14;101676.91;5088176;28;20031;-68
2021/08/14 00:43:09;;;;;;;18.37;5.80;;;;;;;13.63;92.43;101675.56;5088542;28;20445;-68
2021/08/14 00:45:41;;;;;;;21.60;5.30;;;;;;;13.57;92.52;101678.88;5088600;28;20536;-68
2021/08/14 00:48:10;;;;;;;15.70;4.50;;;;;;;13.50;92.67;101676.81;5070912;28;20050;-69
2021/08/14 00:50:37;;;;;;;29.33;5.72;;;;;;;13.52;93.02;101674.81;5054195;28;20030;-68
2021/08/14 00:53:03;;;;;;;20.75;5.10;;;;;;;13.39;92.16;101678.94;5088614;28;20040;-68
2021/08/14 00:55:29;;;;;;;16.42;4.95;;;;;;;13.44;92.99;101672.09;5088346;28;20032;-68
2021/08/14 00:57:54;;;;;;;22.20;6.23;;;;;;;13.40;93.03;101665.38;5053873;28;20190;-68
2021/08/14 01:00:20;;;;;;;16.63;4.60;;;;;;;13.32;93.17;101664.47;5088361;28;20131;-68
2021/08/14 01:02:47;;;;;;;19.33;5.13;;;;;;;13.24;93.27;101662.53;5088506;28;20039;-68
2021/08/14 01:05:12;;;;;;;;;;;;;;;13.21;93.44;101663.72;5088842;28;20036;-68
2021/08/14 01:07:37;;;;;;;;;;;;;;;13.20;94.12;101666.53;5088791;28;19922;-68
2021/08/14 01:10:03;;;;;;;17.07;4.67;;;;;;;13.09;93.54;101659.59;5088290;28;19912;-69
2021/08/14 01:12:29;;;;;;;26.48;6.75;;;;;;;13.04;94.34;101659.22;5088338;28;20070;-68
2021/08/14 01:14:55;;;;;;;19.05;4.85;;;;;;;13.08;94.99;101649.88;5087967;28;20454;-68
2021/08/14 01:17:21;;;;;;;16.10;5.20;;;;;;;13.20;94.31;101648.59;5070318;28;20040;-68
2021/08/14 01:19:47;;;;;;;;;;;;;;;13.25;93.42;101653.50;5070693;28;20028;-68
2021/08/14 01:22:13;;;;;;;;;;;;;;;13.23;92.94;101652.84;5070813;28;19934;-68
2021/08/14 01:24:38;;;;;;;17.27;3.75;;;;;;;13.23;92.52;101651.00;5070216;28;19977;-68
2021/08/14 01:27:06;;;;;;;24.00;4.57;;;;;;;13.48;92.08;101649.31;5069714;28;20077;-68
2021/08/14 01:29:35;;;;;;;22.30;5.72;;;;;;;13.58;91.10;101654.56;5087906;28;20556;-68
2021/08/14 01:32:01;;;;;;;19.73;5.53;;;;;;;13.60;90.83;101647.22;5069895;28;20040;-68
2021/08/14 01:34:27;;;;;;;23.10;4.28;;;;;;;13.62;90.33;101644.34;5087214;28;20027;-68
2021/08/14 01:36:53;;;;;;;17.75;4.15;;;;;;;13.61;90.50;101640.00;5069813;28;20389;-68
2021/08/14 01:39:18;;;;;;;17.55;5.57;;;;;;;13.64;91.24;101637.81;5070170;28;20044;-68
2021/08/14 01:41:59;;;;;;;14.33;4.77;;;;;;;13.56;91.47;101631.59;5069427;28;20035;-68
2021/08/14 01:44:26;;;;;;;24.52;4.65;;;;;;;13.45;91.49;101638.91;5069801;28;20366;-68
2021/08/14 01:46:51;;;;;;;;;;;;;;;13.30;92.33;101635.97;5088006;28;20447;-68
2021/08/14 01:49:16;;;;;;;;;;;;;;;13.29;92.83;101633.44;5070422;28;19912;-68
2021/08/14 01:51:42;;;;;;;15.77;4.77;;;;;;;13.15;93.07;101626.78;5087711;28;19912;-68
2021/08/14 01:54:07;;;;;;;14.47;4.30;;;;;;;13.06;94.28;101627.72;5094100;28;20031;-68
2021/08/14 01:56:33;;;;;;;19.97;4.83;;;;;;;12.98;94.37;101625.84;5093910;28;20393;-69
2021/08/14 01:58:59;;;;;;;20.52;4.93;;;;;;;12.92;94.52;101615.75;5076615;28;20028;-68
2021/08/14 02:01:25;;;;;;;;;;;;;;;12.88;95.06;101623.28;5094615;28;20501;-68
2021/08/14 02:03:50;;;;;;;;;;;;;;;12.84;95.60;101613.84;5076793;28;19915;-68
2021/08/14 02:06:22;;;;;;;25.17;5.53;;;;;;;12.86;96.10;101616.38;5075833;28;19912;-68
2021/08/14 02:08:48;;;;;;;22.83;7.15;;;;;;;12.81;96.61;101610.66;5094553;28;20345;-68
2021/08/14 02:11:20;;;;;;;21.73;5.00;;;;;;;12.80;96.68;101607.13;5076245;28;20024;-68
2021/08/14 02:13:48;;;;;;;24.20;6.60;;;;;;;12.83;96.62;101617.53;5094261;28;20036;-68
2021/08/14 02:16:14;;;;;;;22.20;5.28;;;;;;;12.87;96.29;101618.88;5093816;28;20036;-68
2021/08/14 02:18:40;;;;;;;24.17;6.10;;;;;;;12.87;96.22;101615.38;5094178;28;20024;-68
2021/08/14 02:21:06;;;;;;;22.40;6.05;;;;;;;12.89;96.58;101616.91;5093684;28;20338;-68
2021/08/14 02:23:32;;;;;;;18.77;5.45;;;;;;;12.83;96.97;101617.53;5093935;28;20426;-68
2021/08/14 02:25:58;;;;;;;20.25;5.95;;;;;;;12.85;96.86;101609.31;5075723;28;20048;-68
2021/08/14 02:28:24;;;;;;;23.90;7.35;;;;;;;12.89;96.96;101608.84;5076208;28;20095;-68
2021/08/14 02:30:49;;;;;;;17.93;5.20;;;;;;;12.90;97.67;101615.09;5076386;28;20507;-68
2021/08/14 02:33:15;;;;;;;20.67;5.50;;;;;;;12.94;98.61;101618.28;5094142;28;20024;-68
2021/08/14 02:35:40;;;;;;;26.13;6.63;;;;;;;12.93;97.94;101612.06;5076127;28;20293;-68
2021/08/14 02:38:05;;;;;;;37.53;8.57;;;;;;;12.89;98.49;101608.03;5075758;28;20050;-68
2021/08/14 02:40:32;;;;;;;20.37;6.60;;;;;;;12.96;98.54;101609.06;5076179;28;20111;-68
2021/08/14 02:42:58;;;;;;;23.38;7.15;;;;;;;12.97;98.52;101602.72;5093395;28;20101;-68
2021/08/14 02:45:23;;;;;;;16.90;6.13;;;;;;;12.99;98.48;101606.06;5093841;28;20028;-68
2021/08/14 02:47:48;;;;;;;27.83;6.07;;;;;;;13.00;98.51;101598.91;5059010;28;20047;-68
2021/08/14 02:50:14;;;;;;;28.37;7.70;;;;;;;13.07;98.95;101599.94;5076054;28;20089;-69
2021/08/14 02:52:39;;;;;;;23.27;7.20;;;;;;;13.14;98.36;101602.84;5093641;28;20556;-69
2021/08/14 02:55:05;;;;;;;22.53;6.30;;;;;;;13.12;98.95;101602.16;5093606;28;20055;-68
2021/08/14 02:57:30;;;;;;;29.43;7.23;;;;;;;13.16;98.82;101608.84;5093495;28;20089;-68
2021/08/14 02:59:55;;;;;;;30.27;6.77;;;;;;;13.19;98.74;101601.34;5094321;28;20357;-68
2021/08/14 03:02:21;;;;;;;27.63;8.07;;;;;;;13.23;98.75;101607.25;5075953;28;20032;-68
2021/08/14 03:04:46;;;;;;;25.43;6.53;;;;;;;13.21;98.63;101598.53;5090546;28;20093;-68
2021/08/14 03:07:11;;;;;;;30.83;7.07;;;;;;;13.18;98.80;101599.69;5072634;28;20110;-68
2021/08/14 03:09:37;;;;;;;26.37;8.67;;;;;;;13.25;98.85;101597.19;5090402;28;20031;-68
2021/08/14 03:12:02;;;;;;;31.50;7.50;;;;;;;13.21;99.34;101583.25;5090305;28;20032;-68
2021/08/14 03:14:28;;;;;;;24.23;6.90;;;;;;;13.20;98.96;101591.47;5090097;28;20484;-68
2021/08/14 03:16:53;;;;;;;24.83;7.30;;;;;;;13.24;99.23;101590.16;5090080;28;20278;-68
2021/08/14 03:19:18;;;;;;;24.40;7.57;;;;;;;13.22;98.95;101584.09;5089759;28;20067;-68
2021/08/14 03:21:44;;;;;;;21.73;6.93;;;;;;;13.26;99.02;101585.47;5090228;28;20097;-68
2021/08/14 03:24:09;;;;;;;15.23;7.47;;;;;;;13.27;99.28;101592.50;5071922;28;20032;-68
2021/08/14 03:26:34;;;;;;;22.27;7.30;;;;;;;13.33;98.95;101597.28;5090210;28;20039;-69
2021/08/14 03:29:00;;;;;;;20.27;6.07;;;;;;;13.37;99.12;101603.13;5090386;28;20108;-68
2021/08/14 03:31:25;;;;;;;20.67;8.23;;;;;;;13.32;99.13;101579.47;5090060;28;20035;-68
2021/08/14 03:33:50;;;;;;;24.13;6.37;;;;;;;13.38;98.90;101578.00;5089910;28;20469;-68
2021/08/14 03:36:16;;;;;;;20.03;7.53;;;;;;;13.41;99.04;101581.19;5089745;28;20326;-68
2021/08/14 03:38:42;;;;;;;20.58;6.95;;;;;;;13.40;98.93;101563.44;5072101;28;20435;-68
2021/08/14 03:41:08;;;;;;;26.48;7.53;;;;;;;13.43;98.92;101581.88;5089882;28;20028;-68
2021/08/14 03:43:35;;;;;;;21.08;7.47;;;;;;;13.51;98.44;101579.25;5071948;28;20028;-68
2021/08/14 03:46:00;;;;;;;21.85;7.20;;;;;;;13.60;98.58;101590.00;5089058;28;20044;-68
2021/08/14 03:48:26;;;;;;;21.33;5.90;;;;;;;13.56;98.41;101578.78;5072037;28;20059;-68
2021/08/14 03:50:51;;;;;;;27.67;8.25;;;;;;;13.55;98.30;101578.91;5089482;28;20039;-68
2021/08/14 03:53:17;;;;;;;19.17;7.80;;;;;;;13.62;98.42;101585.31;5071659;28;20123;-69
2021/08/14 03:55:43;;;;;;;24.13;8.07;;;;;;;13.59;98.83;101582.97;5054681;28;20059;-68
2021/08/14 03:58:08;;;;;;;18.67;6.90;;;;;;;13.63;98.60;101582.47;5089586;28;20039;-68
2021/08/14 04:00:34;;;;;;;19.90;7.53;;;;;;;13.62;98.64;101586.16;5089495;28;20024;-69
2021/08/14 04:03:00;;;;;;;24.40;7.33;;;;;;;13.63;98.85;101579.81;5071806;28;20514;-68
2021/08/14 04:05:25;;;;;;;26.10;7.10;;;;;;;13.57;98.58;101572.38;5071481;28;20430;-69
2021/08/14 04:07:51;;;;;;;25.23;7.57;;;;;;;13.66;99.02;101581.31;5071428;28;20047;-69
2021/08/14 04:10:16;;;;;;;18.13;7.20;;;;;;;13.68;98.81;101590.06;5071366;28;20070;-68
2021/08/14 04:12:41;;;;;;;22.67;7.47;;;;;;;13.66;98.89;101587.50;5089374;28;20132;-68
2021/08/14 04:15:07;;;;;;;24.20;6.93;;;;;;;13.70;98.73;101590.72;5088415;28;20067;-68
2021/08/14 04:17:33;;;;;;;25.77;7.20;;;;;;;13.73;98.85;101577.81;5088302;28;20085;-69
2021/08/14 04:19:59;;;;;;;19.13;6.97;;;;;;;13.77;98.65;101588.25;5088448;28;20140;-68
2021/08/14 04:22:24;;;;;;;32.00;6.97;;;;;;;13.75;98.61;101580.34;5088974;28;20039;-68
2021/08/14 04:24:50;;;;;;;20.00;6.13;;;;;;;13.66;98.60;101578.63;5054560;28;20047;-68
2021/08/14 04:27:15;;;;;;;27.67;6.90;;;;;;;13.66;98.57;101579.47;5088574;28;20107;-69
2021/08/14 04:29:40;;;;;;;24.50;8.70;;;;;;;13.76;99.00;101576.63;5089110;28;20706;-68
2021/08/14 04:32:06;;;;;;;23.20;7.30;;;;;;;13.73;98.76;101574.28;5088803;28;20036;-68
2021/08/14 04:34:31;;;;;;;23.80;7.47;;;;;;;13.76;98.80;101573.13;5088869;28;20372;-68
2021/08/14 04:36:57;;;;;;;18.70;7.20;;;;;;;13.81;98.74;101578.84;5088537;28;20456;-68
2021/08/14 04:39:22;;;;;;;24.60;8.00;;;;;;;13.82;98.58;101575.16;5070948;28;20092;-69
2021/08/14 04:41:47;;;;;;;25.67;8.50;;;;;;;13.88;98.25;101579.88;5088567;28;20032;-68
2021/08/14 04:44:13;;;;;;;21.03;6.53;;;;;;;13.92;98.19;101583.91;5070644;28;20040;-68
2021/08/14 04:46:38;;;;;;;18.43;7.43;;;;;;;13.96;98.10;101587.94;5088193;28;20036;-68
2021/08/14 04:49:03;;;;;;;22.00;5.97;;;;;;;13.99;97.68;101576.03;5088597;28;20030;-68
2021/08/14 04:51:29;;;;;;;20.70;6.83;;;;;;;14.08;97.38;101583.94;5070360;28;20472;-69
2021/08/14 04:53:54;;;;;;;23.80;6.40;;;;;;;14.05;97.15;101572.72;5088528;28;20040;-69
2021/08/14 04:56:20;;;;;;;19.80;7.80;;;;;;;14.09;96.90;101571.34;5088020;28;20028;-68
2021/08/14 04:58:45;;;;;;;16.17;6.13;;;;;;;14.13;97.35;101572.72;5070726;28;20115;-69
2021/08/14 05:01:11;;;;;;;19.97;7.47;;;;;;;14.14;96.95;101575.22;5088351;28;20086;-68
2021/08/14 05:03:36;;;;;;;17.23;5.68;;;;;;;14.13;97.00;101567.34;5088402;28;20028;-68
2021/08/14 05:06:02;;;;;;;18.50;6.13;;;;;;;14.25;96.69;101576.75;5070056;28;20364;-68
2021/08/14 05:08:28;;;;;;;24.92;6.55;;;;;;;14.20;96.74;101573.72;5088124;28;20043;-69
2021/08/14 05:10:53;;;;;;;24.10;7.00;;;;;;;14.21;96.69;101570.03;5070485;28;20028;-68
2021/08/14 05:13:19;;;;;;;20.43;6.73;;;;;;;14.27;96.22;101566.69;5087793;28;20047;-69
2021/08/14 05:15:44;;;;;;;23.10;6.33;;;;;;;14.32;96.54;101572.38;5070042;28;20401;-68
2021/08/14 05:18:09;;;;;;;20.27;6.20;;;;;;;14.41;95.79;101575.09;5088122;28;20019;-69
2021/08/14 05:20:35;;;;;;;31.50;8.97;;;;;;;14.45;96.02;101577.28;5070372;28;20485;-69
2021/08/14 05:23:00;;;;;;;17.00;7.37;;;;;;;14.49;95.64;101584.00;5087755;28;20098;-68
2021/08/14 05:25:26;;;;;;;22.20;6.27;;;;;;;14.50;95.81;101574.09;5070118;28;20089;-69
2021/08/14 05:27:51;;;;;;;22.52;6.70;;;;;;;14.50;95.53;101561.47;5069318;28;20035;-69
2021/08/14 05:30:17;;;;;;;14.23;6.00;;;;;;;14.55;95.26;101567.22;5088039;28;20028;-69
2021/08/14 05:32:43;;;;;;;16.02;6.93;;;;;;;14.56;95.13;101558.16;5069794;28;20510;-69
2021/08/14 05:35:09;;;;;;;18.73;5.53;;;;;;;14.56;94.93;101559.97;5087919;28;20047;-69
2021/08/14 05:37:34;;;;;;;31.38;8.32;;;;;;;14.61;95.22;101557.66;5087384;28;20126;-69
2021/08/14 05:40:00;;;;;;;16.33;5.73;;;;;;;14.65;94.79;101561.66;5087786;28;20139;-69
2021/08/14 05:42:25;;;;;;;14.45;5.40;;;;;;;14.69;94.70;101557.63;5069255;28;20085;-68
2021/08/14 05:44:50;;;;;;;18.60;5.23;;;;;;;14.68;94.45;101560.47;5087571;28;20046;-68
2021/08/14 05:47:16;;;;;;;24.20;5.90;;;;;;;14.83;94.12;101563.34;5087630;28;20043;-69
2021/08/14 05:49:41;;;;;;;24.47;6.70;;;;;;;14.77;94.09;101557.63;5087822;28;20028;-69
2021/08/14 05:52:07;;;;;;;19.03;6.27;;;;;;;14.81;94.12;101559.97;5087393;28;20052;-69
2021/08/14 05:54:34;;;;;;;15.70;5.18;;;;;;;14.82;94.06;101556.25;5069577;28;20114;-68
2021/08/14 05:56:59;;;;;;;17.27;6.50;;;;;;;14.88;93.82;101567.19;5087546;28;20027;-69
2021/08/14 05:59:25;;;;;;;28.45;7.18;;;;;;;14.90;93.66;101551.72;5069805;28;20040;-69
2021/08/14 06:01:50;;;;;;;18.07;5.90;;;;;;;15.08;93.46;101553.38;5069665;28;20040;-69
2021/08/14 06:04:15;;;;;;;17.33;5.87;;;;;;;15.13;93.09;101554.53;5087383;28;20072;-69
2021/08/14 06:06:45;;;;;;;19.77;6.10;;;;;;;15.12;92.80;101552.00;5052697;28;20036;-69
2021/08/14 06:09:11;;;;;;;22.58;6.35;;;;;;;15.24;92.64;101555.16;5052964;28;20051;-69
2021/08/14 06:11:37;;;;;;;14.30;5.25;;;;;;;15.28;92.00;101556.50;5087316;28;20024;-69
2021/08/14 06:14:02;;;;;;;20.80;5.47;;;;;;;15.30;91.63;101551.78;5087243;28;20471;-69
2021/08/14 06:16:28;;;;;;;21.30;5.57;;;;;;;15.30;91.66;101551.78;5087135;28;20105;-69
2021/08/14 06:18:53;;;;;;;15.67;6.13;;;;;;;15.31;91.83;101548.06;5069406;28;20032;-69
2021/08/14 06:21:18;;;;;;;19.50;6.43;;;;;;;15.34;91.56;101547.72;5086856;28;20161;-69
2021/08/14 06:23:44;;;;;;;17.67;6.10;;;;;;;15.34;91.91;101531.59;5069382;28;20536;-69
2021/08/14 06:26:09;;;;;;;14.80;5.00;;;;;;;15.38;91.15;101538.28;5087122;28;20043;-68
2021/08/14 06:28:34;;;;;;;21.90;6.93;;;;;;;15.47;90.61;101539.91;5053140;28;20042;-69
2021/08/14 06:31:00;;;;;;;23.07;5.57;;;;;;;15.53;91.04;101539.22;5087116;28;20036;-69
2021/08/14 06:33:25;;;;;;;21.23;6.37;;;;;;;15.50;91.36;101534.22;5087198;28;20020;-69
2021/08/14 06:35:51;;;;;;;16.00;5.73;;;;;;;15.55;90.59;101531.81;5068834;28;20460;-69
2021/08/14 06:38:16;;;;;;;19.30;5.90;;;;;;;15.66;90.72;101543.19;5087077;28;20059;-69
2021/08/14 06:40:41;;;;;;;18.53;5.40;;;;;;;15.77;90.32;101540.97;5055682;28;20031;-69
2021/08/14 06:43:07;;;;;;;23.13;4.87;;;;;;;15.78;89.82;101537.28;5072701;28;20040;-69
2021/08/14 06:45:32;;;;;;;15.80;4.87;;;;;;;15.88;90.23;101547.81;5090536;28;20031;-69
2021/08/14 06:47:57;;;;;;;17.83;5.33;;;;;;;15.83;89.90;101536.75;5072763;28;20032;-69
2021/08/14 06:50:23;;;;;;;21.43;5.70;;;;;;;15.95;89.39;101532.63;5090643;28;20070;-69
2021/08/14 06:52:48;;;;;;;19.03;6.50;;;;;;;15.95;88.68;101532.63;5090894;28;20043;-69
2021/08/14 06:55:13;;;;;;;17.73;6.33;;;;;;;16.11;88.26;101525.44;5072928;28;20513;-69
2021/08/14 06:57:39;;;;;;;19.47;5.50;;;;;;;16.32;87.39;101530.16;5072980;28;20525;-69
2021/08/14 07:00:05;;;;;;;19.97;5.93;;;;;;;16.35;87.33;101533.31;5090773;28;20039;-69
2021/08/14 07:02:31;;;;;;;23.80;5.60;;;;;;;16.47;87.63;101520.25;5072565;28;20030;-69
2021/08/14 07:04:56;;;;;;;22.17;5.57;;;;;;;16.76;85.65;101521.31;5090411;28;20036;-69
2021/08/14 07:07:22;;;;;;;18.33;5.33;;;;;;;16.74;84.98;101518.81;5072479;28;20077;-69
2021/08/14 07:09:47;;;;;;;19.40;5.40;;;;;;;16.84;84.70;101511.31;5090652;28;20103;-70
2021/08/14 07:12:14;;;;;;;20.03;4.63;;;;;;;17.03;84.85;101514.50;5090139;28;20476;-70
2021/08/14 07:14:39;;;;;;;15.63;4.95;;;;;;;16.95;83.79;101509.19;5072529;28;20494;-70
2021/08/14 07:17:05;;;;;;;19.52;4.75;;;;;;;16.97;84.16;101509.84;5072104;28;20024;-70
2021/08/14 07:19:31;;;;;;;20.37;5.33;;;;;;;17.11;84.35;101517.06;5090190;28;20086;-70
2021/08/14 07:21:56;;;;;;;18.90;5.38;;;;;;;17.15;84.03;101523.78;5072500;28;20453;-70
2021/08/14 07:24:22;;;;;;;17.50;4.83;;;;;;;17.15;82.96;101529.19;5090257;28;20031;-70
2021/08/14 07:26:47;;;;;;;14.70;5.37;;;;;;;17.24;82.46;101528.06;5089951;28;20039;-70
2021/08/14 07:29:12;;;;;;;13.77;4.20;;;;;;;17.35;82.93;101517.78;5090387;28;20122;-70
2021/08/14 07:31:38;;;;;;;23.30;6.90;;;;;;;17.35;82.62;101528.59;5089816;28;20039;-70
2021/08/14 07:34:03;;;;;;;16.93;5.87;;;;;;;17.65;81.56;101524.84;5072437;28;20039;-70
2021/08/14 07:36:28;;;;;;;17.40;5.00;;;;;;;17.70;81.57;101522.41;5089845;28;20024;-70
2021/08/14 07:38:54;;;;;;;17.10;4.33;;;;;;;18.09;79.53;101520.31;5072573;28;20489;-70
2021/08/14 07:41:19;;;;;;;12.90;4.43;;;;;;;18.55;78.42;101520.72;5089978;28;20521;-70
2021/08/14 07:43:44;;;;;;;16.33;4.93;;;;;;;18.73;76.63;101505.84;5089368;28;20036;-70
2021/08/14 07:46:10;;;;;;;13.73;4.93;;;;;;;18.59;76.80;101506.78;5089361;28;20032;-70
2021/08/14 07:48:36;;;;;;;14.07;6.73;;;;;;;18.40;77.45;101509.16;5055418;28;20085;-70
2021/08/14 07:51:01;;;;;;;16.05;4.57;;;;;;;18.33;77.81;101516.38;5089641;28;20103;-70
2021/08/14 07:53:27;;;;;;;17.27;4.60;;;;;;;18.76;75.72;101509.03;5089808;28;20084;-70
2021/08/14 07:55:53;;;;;;;16.08;4.65;;;;;;;19.00;75.51;101500.66;5071845;28;20043;-70
2021/08/14 07:58:19;;;;;;;14.55;4.20;;;;;;;19.28;73.89;101504.13;5072015;28;20031;-70
2021/08/14 08:00:44;;;;;;;17.63;4.63;;;;;;;18.97;75.90;101497.31;5089976;28;20099;-70
2021/08/14 08:03:11;;;;;;;22.70;4.97;;;;;;;18.83;74.94;101500.16;5089983;28;20281;-70
2021/08/14 08:05:37;;;;;;;13.07;3.83;;;;;;;18.97;75.50;101501.88;5071809;28;20296;-70
2021/08/14 08:08:03;;;;;;;13.02;4.53;;;;;;;18.68;76.47;101502.91;5089345;28;20027;-70
2021/08/14 08:10:29;;;;;;;;;;;;;;;18.86;75.74;101489.75;5090052;28;20055;-70
2021/08/14 08:12:54;;;;;;;;;;;;;;;19.47;75.07;101486.28;5089808;28;20341;-70
2021/08/14 08:15:20;;;;;;;12.27;3.67;;;;;;;20.11;72.50;101487.69;5071777;28;19915;-70
2021/08/14 08:17:46;;;;;;;18.13;4.53;;;;;;;19.95;71.14;101488.94;5071073;28;20120;-70
2021/08/14 08:20:13;;;;;;;19.95;5.57;;;;;;;19.99;70.62;101481.19;5089426;28;20074;-70
2021/08/14 08:22:38;;;;;;;17.58;4.38;;;;;;;19.99;71.38;101489.34;5071239;28;20096;-70
2021/08/14 08:25:05;;;;;;;12.03;4.03;;;;;;;19.72;70.73;101483.06;5071533;28;20028;-70
2021/08/14 08:27:31;;;;;;;14.02;4.43;;;;;;;20.48;70.05;101488.09;5054310;28;20036;-70
2021/08/14 08:29:56;;;;;;;11.93;4.25;;;;;;;20.22;71.23;101484.34;5089288;28;20587;-70
2021/08/14 08:32:21;;;;;;;12.40;4.03;;;;;;;20.26;70.84;101486.66;5089076;28;20039;-70
2021/08/14 08:34:47;;;;;;;11.83;4.03;;;;;;;20.32;70.25;101483.09;5071286;28;20469;-70
2021/08/14 08:37:12;;;;;;;12.67;4.87;;;;;;;20.36;70.14;101468.91;5071142;28;20354;-70
2021/08/14 08:39:37;;;;;;;15.67;4.63;;;;;;;19.97;70.14;101469.72;5071283;28;20023;-70
2021/08/14 08:42:07;;;;;;;9.93;4.57;;;;;;;20.12;70.89;101470.38;5070578;28;20121;-70
2021/08/14 08:44:33;;;;;;;17.73;4.93;;;;;;;20.09;70.57;101468.09;5070733;28;20189;-71
2021/08/14 08:46:59;;;;;;;15.57;4.38;;;;;;;20.19;69.88;101471.22;5070733;28;20457;-71
2021/08/14 08:49:26;;;;;;;10.93;4.05;;;;;;;19.81;70.36;101474.53;5071073;28;20240;-71
2021/08/14 08:51:53;;;;;;;10.70;3.47;;;;;;;20.00;70.35;101467.44;5089049;28;20475;-70
2021/08/14 08:54:19;;;;;;;19.23;4.82;;;;;;;20.09;70.15;101465.38;5088453;28;20028;-71
2021/08/14 08:56:45;;;;;;;15.75;4.70;;;;;;;19.85;71.23;101458.66;5053967;28;20043;-71
2021/08/14 08:59:11;;;;;;;15.77;4.35;;;;;;;20.54;70.02;101459.31;5088636;28;20032;-70
2021/08/14 09:01:41;;;;;;;13.18;4.45;;;;;;;20.89;69.13;101468.00;5070001;28;20031;-71
2021/08/14 09:04:27;;;;;;;12.30;4.72;;;;;;;20.77;67.95;101464.31;5070423;28;20488;-71
2021/08/14 09:06:54;;;;;;;10.77;3.65;;;;;;;20.55;69.34;101455.53;5070404;28;20055;-71
2021/08/14 09:09:31;;;;;;;12.52;4.45;;;;;;;20.12;68.92;101459.53;5088384;28;20453;-71
2021/08/14 09:12:03;;;;;;;13.20;4.55;;;;;;;20.20;70.74;101453.06;5088325;28;20047;-71
2021/08/14 09:14:43;;;;;;;19.35;5.03;;;;;;;20.17;69.55;101454.31;5088493;28;20385;-71
2021/08/14 09:17:09;;;;;;;15.05;4.18;;;;;;;20.13;70.63;101458.47;5087788;28;20036;-71
2021/08/14 09:19:35;;;;;;;10.23;3.55;;;;;;;20.36;70.15;101451.81;5069882;28;20067;-71
2021/08/14 09:22:14;;;;;;;15.57;4.05;;;;;;;20.33;69.74;101449.53;5088129;28;20039;-71
2021/08/14 09:24:40;;;;;;;16.67;5.13;;;;;;;20.42;69.73;101445.56;5088167;28;20054;-71
2021/08/14 09:27:06;;;;;;;15.75;4.65;;;;;;;21.58;66.55;101450.16;5070235;28;20103;-71
2021/08/14 09:29:34;;;;;;;11.57;4.15;;;;;;;21.57;64.26;101447.69;5087717;28;20035;-72
2021/08/14 09:32:02;;;;;;;12.95;4.03;;;;;;;21.46;65.70;101444.59;5070101;28;20094;-71
2021/08/14 09:34:28;;;;;;;12.93;4.78;;;;;;;22.27;64.75;101453.06;5070010;28;20567;-71
2021/08/14 09:37:11;;;;;;;15.25;4.30;;;;;;;22.33;63.24;101443.97;5069956;28;20108;-72
2021/08/14 09:39:58;;;;;;;11.13;4.03;;;;;;;22.12;62.43;101446.03;5087695;28;20032;-71
2021/08/14 09:42:25;;;;;;;10.65;3.25;;;;;;;22.01;63.03;101432.28;5069699;28;20042;-71
2021/08/14 09:45:14;;;;;;;10.15;3.92;;;;;;;21.60;63.60;101428.22;5069643;28;20063;-71
2021/08/14 09:47:41;;;;;;;13.57;3.58;;;;;;;21.40;64.74;101431.91;5088010;28;20119;-71
2021/08/14 09:50:07;;;;;;;12.27;3.80;;;;;;;21.21;65.61;101428.22;5069600;28;20086;-71
2021/08/14 09:52:33;;;;;;;14.50;2.90;;;;;;;21.18;64.35;101435.94;5087517;28;20031;-71
2021/08/14 09:54:58;;;;;;;7.82;3.03;;;;;;;21.31;64.25;101433.19;5087355;28;20032;-71
2021/08/14 09:57:25;;;;;;;13.05;3.47;;;;;;;21.90;63.06;101429.25;5087446;28;20558;-71
2021/08/14 09:59:52;;;;;;;8.10;2.72;;;;;;;21.88;63.12;101428.63;5087691;28;20610;-71
2021/08/14 10:02:26;;;;;;;12.27;3.63;;;;;;;22.31;60.26;101422.47;5069635;28;20016;-71
2021/08/14 10:04:54;;;;;;;8.32;2.45;;;;;;;22.18;61.48;101422.53;5087361;28;20036;-71
2021/08/14 10:07:20;;;;;;;9.13;2.78;;;;;;;22.71;59.96;101411.16;5087087;28;20082;-72
2021/08/14 10:09:47;;;;;;;6.60;3.00;;;;;;;22.83;59.88;101415.81;5087483;28;20563;-71
2021/08/14 10:12:13;;;;;;;8.55;3.03;;;;;;;22.07;61.32;101409.66;5052568;28;20100;-72
2021/08/14 10:14:44;;;;;;;6.70;2.85;;;;;;;21.81;61.48;101414.28;5073067;28;20032;-72
2021/08/14 10:17:10;;;;;;;10.48;2.83;;;;;;;22.06;60.97;101386.28;5091080;28;20028;-72
2021/08/14 10:19:37;;;;;;;10.68;3.10;;;;;;;22.84;59.21;101395.72;5091161;28;20357;-71
2021/08/14 10:22:05;;;;;;;8.30;3.08;;;;;;;23.03;59.95;101405.53;5091310;28;20064;-72
2021/08/14 10:24:39;;;;;;;10.80;3.35;;;;;;;22.23;61.11;101398.25;5073488;28;20031;-72
2021/08/14 10:27:16;;;;;;;12.68;3.47;;;;;;;21.82;62.00;101391.50;5073149;28;20046;-72
2021/08/14 10:29:53;;;;;;;12.30;3.88;;;;;;;22.13;61.38;101392.47;5073380;28;20466;-72
2021/08/14 10:32:45;;;;;;;11.95;3.40;;;;;;;21.82;62.29;101396.06;5090913;28;20051;-72
2021/08/14 10:35:20;;;;;;;10.60;3.28;;;;;;;21.71;61.91;101387.59;5087030;28;20453;-71
2021/08/14 10:37:47;;;;;;;10.57;3.38;;;;;;;22.20;59.96;101381.53;5090583;28;20040;-72
2021/08/14 10:40:15;;;;;;;12.10;4.40;;;;;;;22.06;60.50;101380.84;5091137;28;20052;-72
2021/08/14 10:42:53;;;;;;;9.05;3.00;;;;;;;22.42;61.88;101392.84;5072434;28;20415;-72
2021/08/14 10:45:19;;;;;;;9.35;2.90;;;;;;;22.13;60.89;101376.97;5072992;28;20368;-72
2021/08/14 10:47:45;;;;;;;9.10;3.23;;;;;;;22.04;61.06;101381.03;5072711;28;20028;-71
2021/08/14 10:50:29;;;;;;;8.27;2.83;;;;;;;21.65;62.84;101387.63;5073143;28;20036;-72
2021/08/14 10:53:13;;;;;;;11.50;3.17;;;;;;;21.92;62.81;101391.00;5072727;28;20044;-72
2021/08/14 10:55:40;;;;;;;12.50;3.42;;;;;;;21.51;63.29;101386.91;5090782;28;20054;-72
2021/08/14 10:58:30;;;;;;;8.25;3.42;;;;;;;21.81;63.32;101392.53;5072651;28;20534;-72
2021/08/14 11:01:04;;;;;;;11.13;3.47;;;;;;;21.79;62.46;101389.19;5078031;28;20063;-71
2021/08/14 11:03:37;;;;;;;8.93;3.30;;;;;;;21.43;63.84;101382.56;5090399;28;20042;-71
2021/08/14 11:06:36;;;;;;;9.50;2.92;;;;;;;20.92;64.18;101388.03;5090508;28;20032;-71
2021/08/14 11:09:17;;;;;;;12.25;3.72;;;;;;;20.61;64.85;101376.88;5090551;28;20326;-71
2021/08/14 11:11:59;;;;;;;12.73;3.92;;;;;;;20.38;66.60;101376.50;5090273;28;20047;-71
2021/08/14 11:14:45;;;;;;;12.93;3.30;;;;;;;20.33;66.93;101360.03;5072176;28;20042;-71
2021/08/14 11:17:12;;;;;;;9.82;3.25;;;;;;;20.32;66.70;101374.63;5072124;28;20495;-71
2021/08/14 11:19:47;;;;;;;9.18;3.15;;;;;;;20.24;68.24;101373.81;5072282;28;20032;-71